createdAt,value
2022-12-13T12:18:23.306Z,88.84
2022-12-13T12:21:12.980Z,88.72
2022-12-13T12:23:55.656Z,88.84
2022-12-13T12:26:37.472Z,88.83
2022-12-13T12:29:39.701Z,88.74
2022-12-13T12:32:16.607Z,88.41
2022-12-13T12:34:56.079Z,88.30
2022-12-13T12:37:33.200Z,88.22
2022-12-13T12:40:24.077Z,88.35
2022-12-13T12:43:16.653Z,88.33
2022-12-13T12:46:27.471Z,88.23
2022-12-13T12:55:33.234Z,88.26
2022-12-13T12:58:37.816Z,88.37
2022-12-13T13:01:23.778Z,88.28
2022-12-13T13:04:01.473Z,88.24
2022-12-13T13:06:39.804Z,88.35
2022-12-13T13:09:15.408Z,88.27
2022-12-13T13:11:57.465Z,88.29
2022-12-13T13:14:33.819Z,88.22
2022-12-13T13:17:43.466Z,88.29
2022-12-13T13:20:24.541Z,88.31
2022-12-13T13:23:31.899Z,88.28
2022-12-13T13:25:48.796Z,88.21
2022-12-13T13:28:16.515Z,88.19
2022-12-13T13:31:08.345Z,88.07
2022-12-13T13:33:51.553Z,88.09
2022-12-13T13:36:52.810Z,87.88
2022-12-13T13:40:02.845Z,87.64
2022-12-13T13:42:35.687Z,87.82
2022-12-13T13:48:20.670Z,88.00
2022-12-13T13:51:31.071Z,87.92
2022-12-13T13:54:37.404Z,88.03
2022-12-13T14:00:27.028Z,87.98
2022-12-13T14:03:46.646Z,88.25
2022-12-13T14:07:00.958Z,88.20
2022-12-13T14:10:12.919Z,88.09
2022-12-13T14:13:21.742Z,88.06
2022-12-13T14:16:41.466Z,87.83
2022-12-13T14:19:56.369Z,87.71
2022-12-13T14:22:33.882Z,87.71
2022-12-13T14:25:25.739Z,87.75
2022-12-13T14:28:05.521Z,87.82
2022-12-13T14:30:43.015Z,87.70
2022-12-13T14:33:25.031Z,87.85
2022-12-13T14:35:59.819Z,87.85
2022-12-13T14:38:33.433Z,87.83
2022-12-13T14:41:08.568Z,87.78
2022-12-13T14:43:46.973Z,87.50
2022-12-13T14:46:17.402Z,87.43
2022-12-13T14:48:53.543Z,87.29
2022-12-13T14:51:33.742Z,87.37
2022-12-13T14:54:08.729Z,87.47
2022-12-13T14:56:58.227Z,87.39
2022-12-13T14:59:33.450Z,87.19
2022-12-13T15:02:08.891Z,87.19
2022-12-13T15:04:41.892Z,87.27
2022-12-13T15:07:21.291Z,87.21
2022-12-13T15:09:57.427Z,87.19
2022-12-13T15:12:30.903Z,87.15
2022-12-13T15:15:06.537Z,87.03
2022-12-13T15:17:42.347Z,86.94
2022-12-13T15:20:35.211Z,86.93
2022-12-13T15:23:15.664Z,86.93
2022-12-13T15:25:56.044Z,86.99
2022-12-13T15:28:31.624Z,86.95
2022-12-13T15:31:07.671Z,86.87
2022-12-13T15:33:48.108Z,86.85
2022-12-13T15:36:19.782Z,86.78
2022-12-13T15:39:02.413Z,86.75
2022-12-13T15:41:38.166Z,86.82
2022-12-13T15:44:19.752Z,86.93
2022-12-13T15:46:54.862Z,86.80
2022-12-13T15:49:30.716Z,86.80
2022-12-13T15:52:05.765Z,86.69
2022-12-13T15:54:38.897Z,86.56
2022-12-13T15:57:17.859Z,86.55
2022-12-13T15:59:55.243Z,86.61
2022-12-13T16:02:30.166Z,86.61
2022-12-13T16:05:10.079Z,86.47
2022-12-13T16:07:56.417Z,86.47
2022-12-13T16:10:32.354Z,86.28
2022-12-13T16:13:08.281Z,86.07
2022-12-13T16:15:52.229Z,86.07
2022-12-13T16:18:29.697Z,86.20
2022-12-13T16:21:03.412Z,86.10
2022-12-13T16:23:38.055Z,86.19
2022-12-13T16:26:14.419Z,86.25
2022-12-13T16:28:48.157Z,86.18
2022-12-13T16:31:22.933Z,86.20
2022-12-13T16:33:56.046Z,86.05
2022-12-13T16:36:29.956Z,86.04
2022-12-13T16:39:02.825Z,86.06
2022-12-13T16:41:39.235Z,86.01
2022-12-13T16:44:16.434Z,85.94
2022-12-13T16:47:13.709Z,85.96
2022-12-13T16:49:26.748Z,85.97
2022-12-13T16:52:00.009Z,85.95
2022-12-13T16:54:33.014Z,85.98
2022-12-13T16:57:06.234Z,85.99
2022-12-13T16:59:39.392Z,85.99
2022-12-13T17:02:16.696Z,85.97
2022-12-13T17:04:49.702Z,86.01
2022-12-13T17:07:24.201Z,86.14
2022-12-13T17:09:59.158Z,86.14
2022-12-13T17:12:34.272Z,86.06
2022-12-13T17:15:09.615Z,85.99
2022-12-13T17:17:43.958Z,85.99
2022-12-13T17:20:20.027Z,85.97
2022-12-13T17:22:53.709Z,85.90
2022-12-13T17:25:27.700Z,85.98
2022-12-13T17:28:00.912Z,85.96
2022-12-13T17:30:36.098Z,85.88
2022-12-13T17:33:10.145Z,85.89
2022-12-13T17:35:43.107Z,85.86
2022-12-13T17:38:19.597Z,85.71
2022-12-13T17:40:56.319Z,85.63
2022-12-13T17:43:34.786Z,85.63
2022-12-13T17:46:06.008Z,85.67
2022-12-13T17:48:41.088Z,85.59
2022-12-13T17:53:56.202Z,85.39
2022-12-13T17:59:12.070Z,85.37
2022-12-13T18:01:52.713Z,85.49
2022-12-13T18:04:25.922Z,85.41
2022-12-13T18:06:59.312Z,85.43
2022-12-13T18:09:32.656Z,85.42
2022-12-13T18:12:09.751Z,85.36
2022-12-13T18:14:43.779Z,85.31
2022-12-13T18:17:18.620Z,85.26
2022-12-13T18:19:53.261Z,85.16
2022-12-13T18:22:35.512Z,85.07
2022-12-13T18:25:14.829Z,85.04
2022-12-13T18:27:47.920Z,85.11
2022-12-13T18:30:22.035Z,85.09
2022-12-13T18:32:55.774Z,85.16
2022-12-13T18:35:29.243Z,85.12
2022-12-13T18:38:06.880Z,84.98
2022-12-13T18:40:40.336Z,85.04
2022-12-13T18:43:13.871Z,85.02
2022-12-13T18:45:47.385Z,85.01
2022-12-13T18:48:20.911Z,84.97
2022-12-13T18:51:02.126Z,84.86
2022-12-13T18:53:40.379Z,84.79
2022-12-13T18:56:19.209Z,84.87
2022-12-13T18:58:58.223Z,84.76
2022-12-13T19:01:38.833Z,84.79
2022-12-13T19:04:17.268Z,84.66
2022-12-13T19:06:53.813Z,84.73
2022-12-13T19:09:28.904Z,84.77
2022-12-13T19:12:03.093Z,84.78
2022-12-13T19:14:36.230Z,84.83
2022-12-13T19:17:13.534Z,84.79
2022-12-13T19:19:48.635Z,84.77
2022-12-13T19:22:27.799Z,84.67
2022-12-13T19:28:01.745Z,84.58
2022-12-13T19:30:38.115Z,84.67
2022-12-13T19:33:19.014Z,84.71
2022-12-13T19:36:20.050Z,84.75
2022-12-13T19:39:20.945Z,84.85
2022-12-13T19:42:06.083Z,84.90
2022-12-13T19:44:46.653Z,84.98
2022-12-13T19:47:23.840Z,84.92
2022-12-13T19:50:23.016Z,84.93
2022-12-13T19:53:03.626Z,84.81
2022-12-13T19:55:42.203Z,84.77
2022-12-13T19:58:28.293Z,84.72
2022-12-13T20:01:30.405Z,84.77
2022-12-13T20:04:07.077Z,84.81
2022-12-13T20:06:43.980Z,84.87
2022-12-13T20:09:24.715Z,84.62
2022-12-13T20:12:04.280Z,84.36
2022-12-13T20:14:43.508Z,84.42
2022-12-13T20:17:17.397Z,83.67
2022-12-13T20:22:49.640Z,83.24
2022-12-13T20:25:27.970Z,83.46
2022-12-13T20:28:16.032Z,83.67
2022-12-13T20:30:53.175Z,83.89
2022-12-13T20:33:32.764Z,84.11
2022-12-13T20:36:27.753Z,84.12
2022-12-13T20:38:49.099Z,83.88
2022-12-13T20:41:27.635Z,84.27
2022-12-13T20:44:02.613Z,84.69
2022-12-13T20:46:38.091Z,84.74
2022-12-13T20:49:17.975Z,84.77
2022-12-13T20:51:56.918Z,84.96
2022-12-13T20:54:30.973Z,85.27
2022-12-13T20:57:06.426Z,85.23
2022-12-13T20:59:39.602Z,84.99
2022-12-13T21:02:14.053Z,84.98
2022-12-13T21:04:47.271Z,84.81
2022-12-13T21:07:22.025Z,84.87
2022-12-13T21:09:57.725Z,84.65
2022-12-13T21:12:30.823Z,84.64
2022-12-13T21:15:03.994Z,84.76
2022-12-13T21:17:39.220Z,84.53
2022-12-13T21:20:13.289Z,84.34
2022-12-13T21:22:47.143Z,84.46
2022-12-13T21:25:20.747Z,84.88
2022-12-13T21:27:55.246Z,85.09
2022-12-13T21:30:29.711Z,85.08
2022-12-13T21:33:02.964Z,84.98
2022-12-13T21:35:36.411Z,84.33
2022-12-13T21:38:10.737Z,84.10
2022-12-13T21:40:48.332Z,84.33
2022-12-13T21:43:28.816Z,84.53
2022-12-13T21:46:01.524Z,84.61
2022-12-13T21:48:34.716Z,84.38
2022-12-13T21:51:10.465Z,84.51
2022-12-13T21:53:44.188Z,84.31
2022-12-13T21:56:37.443Z,84.15
2022-12-13T21:59:22.389Z,84.19
2022-12-13T22:02:19.121Z,84.24
2022-12-13T22:04:57.750Z,84.70
2022-12-13T22:07:32.985Z,84.74
2022-12-13T22:10:07.459Z,84.66
2022-12-13T22:12:42.654Z,84.42
2022-12-13T22:15:17.183Z,83.68
2022-12-13T22:17:50.455Z,83.71
2022-12-13T22:20:23.637Z,83.88
2022-12-13T22:22:58.226Z,84.04
2022-12-13T22:25:31.577Z,83.99
2022-12-13T22:28:16.744Z,83.80
2022-12-13T23:01:09.782Z,83.95
2022-12-13T23:03:44.481Z,84.41
2022-12-13T23:06:20.000Z,84.10
2022-12-13T23:08:54.996Z,84.17
2022-12-13T23:11:48.630Z,83.95
2022-12-13T23:14:26.769Z,83.55
2022-12-13T23:16:59.988Z,83.29
2022-12-13T23:19:52.852Z,83.68
2022-12-13T23:22:10.001Z,84.01
2022-12-13T23:24:43.333Z,84.40
2022-12-13T23:27:16.634Z,84.54
2022-12-13T23:29:50.182Z,84.42
2022-12-13T23:32:25.727Z,84.11
2022-12-13T23:34:59.713Z,84.39
2022-12-13T23:37:35.670Z,84.25
2022-12-13T23:40:11.932Z,84.09
2022-12-13T23:42:46.132Z,84.32
2022-12-13T23:45:19.401Z,84.28
2022-12-13T23:47:52.528Z,84.25
2022-12-13T23:50:29.036Z,84.29
2022-12-13T23:53:02.224Z,84.09
2022-12-13T23:55:38.311Z,83.97
2022-12-13T23:58:12.534Z,83.63
